Philadelphia, Pennsylvania
Traffic Map
Current Weather Conditions
Philadelphia, Pennsylvania
Scattered Clouds
Scattered Clouds
31°
Feels Like: 31°
Wind Chill: 31° Ceiling: Unl
Heat Index: 31° Visibility: 10mi
Dew Point: 16° Wind: 15mph
Humidity: 40% Direction: 220° (SW)
Pressure: 29.85in Gusts: 0mph
Raw Report DataKPHL 031654Z 22013KT 10SM FEW050 SCT100 SCT260 31/16 A2985 RMK AO2 SLP106 T03110161
Traffic Incident Summary
Active as of:
Severity:
Category:
InformationThere was an issue retrieving the traffic information for this location. Please try a different location or try again shortly.
Advertisements
Track Severe Weather on mobile